sensor_id;sensor_type;location;lat;lon;timestamp;P1;durP1;ratioP1;P2;durP2;ratioP2
31724;SDS011;18306;40.960;14.836;2023-02-12T00:01:25;41.45;;;19.38;;
31724;SDS011;18306;40.960;14.836;2023-02-12T00:03:54;38.60;;;19.83;;
31724;SDS011;18306;40.960;14.836;2023-02-12T00:06:23;42.35;;;19.70;;
31724;SDS011;18306;40.960;14.836;2023-02-12T00:08:52;50.03;;;22.88;;
31724;SDS011;18306;40.960;14.836;2023-02-12T00:11:25;43.83;;;19.95;;
31724;SDS011;18306;40.960;14.836;2023-02-12T00:13:56;37.38;;;18.05;;
31724;SDS011;18306;40.960;14.836;2023-02-12T00:16:26;38.47;;;18.80;;
31724;SDS011;18306;40.960;14.836;2023-02-12T00:18:54;41.30;;;17.88;;
31724;SDS011;18306;40.960;14.836;2023-02-12T00:21:23;28.45;;;16.50;;
31724;SDS011;18306;40.960;14.836;2023-02-12T00:23:51;28.75;;;15.88;;
31724;SDS011;18306;40.960;14.836;2023-02-12T00:26:19;35.88;;;17.77;;
31724;SDS011;18306;40.960;14.836;2023-02-12T00:28:51;34.10;;;16.45;;
31724;SDS011;18306;40.960;14.836;2023-02-12T00:31:20;28.33;;;14.93;;
31724;SDS011;18306;40.960;14.836;2023-02-12T00:33:54;28.67;;;14.90;;
31724;SDS011;18306;40.960;14.836;2023-02-12T00:36:23;31.00;;;16.17;;
31724;SDS011;18306;40.960;14.836;2023-02-12T00:38:53;32.35;;;17.98;;
31724;SDS011;18306;40.960;14.836;2023-02-12T00:41:24;31.20;;;15.13;;
31724;SDS011;18306;40.960;14.836;2023-02-12T00:43:52;33.03;;;16.13;;
31724;SDS011;18306;40.960;14.836;2023-02-12T00:46:20;33.40;;;16.02;;
31724;SDS011;18306;40.960;14.836;2023-02-12T00:48:48;34.55;;;18.08;;
31724;SDS011;18306;40.960;14.836;2023-02-12T00:51:19;37.33;;;19.08;;
31724;SDS011;18306;40.960;14.836;2023-02-12T00:53:46;47.92;;;18.83;;
31724;SDS011;18306;40.960;14.836;2023-02-12T00:56:13;41.60;;;17.00;;
31724;SDS011;18306;40.960;14.836;2023-02-12T00:58:41;39.70;;;19.98;;
31724;SDS011;18306;40.960;14.836;2023-02-12T01:01:08;35.40;;;17.10;;
31724;SDS011;18306;40.960;14.836;2023-02-12T01:03:36;40.00;;;19.63;;
31724;SDS011;18306;40.960;14.836;2023-02-12T01:06:04;26.40;;;17.45;;
31724;SDS011;18306;40.960;14.836;2023-02-12T01:08:32;40.13;;;18.10;;
31724;SDS011;18306;40.960;14.836;2023-02-12T01:11:00;36.58;;;18.75;;
31724;SDS011;18306;40.960;14.836;2023-02-12T01:13:29;45.75;;;17.92;;
31724;SDS011;18306;40.960;14.836;2023-02-12T01:16:00;44.38;;;20.13;;
31724;SDS011;18306;40.960;14.836;2023-02-12T01:18:28;47.88;;;19.73;;
31724;SDS011;18306;40.960;14.836;2023-02-12T01:20:56;34.35;;;18.27;;
31724;SDS011;18306;40.960;14.836;2023-02-12T01:23:27;38.70;;;18.55;;
31724;SDS011;18306;40.960;14.836;2023-02-12T01:25:54;32.10;;;18.75;;
31724;SDS011;18306;40.960;14.836;2023-02-12T01:28:25;34.72;;;18.33;;
31724;SDS011;18306;40.960;14.836;2023-02-12T01:30:52;38.25;;;18.73;;
31724;SDS011;18306;40.960;14.836;2023-02-12T01:33:20;37.75;;;20.65;;
31724;SDS011;18306;40.960;14.836;2023-02-12T01:35:47;40.95;;;18.67;;
31724;SDS011;18306;40.960;14.836;2023-02-12T01:38:15;38.63;;;20.38;;
31724;SDS011;18306;40.960;14.836;2023-02-12T01:40:42;38.47;;;17.48;;
31724;SDS011;18306;40.960;14.836;2023-02-12T01:43:11;33.35;;;17.17;;
31724;SDS011;18306;40.960;14.836;2023-02-12T01:45:44;40.78;;;19.05;;
31724;SDS011;18306;40.960;14.836;2023-02-12T01:48:13;34.88;;;18.58;;
31724;SDS011;18306;40.960;14.836;2023-02-12T01:50:43;28.10;;;17.83;;
31724;SDS011;18306;40.960;14.836;2023-02-12T01:53:13;33.97;;;18.23;;
31724;SDS011;18306;40.960;14.836;2023-02-12T01:55:46;40.20;;;20.83;;
31724;SDS011;18306;40.960;14.836;2023-02-12T01:58:15;36.78;;;19.50;;
31724;SDS011;18306;40.960;14.836;2023-02-12T02:00:44;39.38;;;21.35;;
31724;SDS011;18306;40.960;14.836;2023-02-12T02:03:12;31.73;;;18.73;;
31724;SDS011;18306;40.960;14.836;2023-02-12T02:05:42;38.83;;;18.52;;
31724;SDS011;18306;40.960;14.836;2023-02-12T02:08:20;41.58;;;18.92;;
31724;SDS011;18306;40.960;14.836;2023-02-12T02:10:48;36.33;;;17.63;;
31724;SDS011;18306;40.960;14.836;2023-02-12T02:13:16;32.63;;;17.35;;
31724;SDS011;18306;40.960;14.836;2023-02-12T02:16:09;37.60;;;18.83;;
31724;SDS011;18306;40.960;14.836;2023-02-12T02:18:52;36.38;;;18.30;;
31724;SDS011;18306;40.960;14.836;2023-02-12T02:24:20;34.30;;;17.20;;
31724;SDS011;18306;40.960;14.836;2023-02-12T02:33:21;33.38;;;18.13;;
31724;SDS011;18306;40.960;14.836;2023-02-12T02:35:59;34.72;;;17.45;;
31724;SDS011;18306;40.960;14.836;2023-02-12T02:38:52;23.98;;;14.50;;
31724;SDS011;18306;40.960;14.836;2023-02-12T02:41:28;30.05;;;16.20;;
31724;SDS011;18306;40.960;14.836;2023-02-12T02:44:09;41.40;;;18.23;;
31724;SDS011;18306;40.960;14.836;2023-02-12T02:46:48;31.77;;;17.42;;
31724;SDS011;18306;40.960;14.836;2023-02-12T02:49:20;31.67;;;19.13;;
31724;SDS011;18306;40.960;14.836;2023-02-12T02:51:59;40.95;;;19.35;;
31724;SDS011;18306;40.960;14.836;2023-02-12T02:54:35;35.58;;;20.80;;
31724;SDS011;18306;40.960;14.836;2023-02-12T02:57:13;37.00;;;19.35;;
31724;SDS011;18306;40.960;14.836;2023-02-12T02:59:45;38.15;;;20.40;;
31724;SDS011;18306;40.960;14.836;2023-02-12T03:04:57;36.28;;;18.77;;
31724;SDS011;18306;40.960;14.836;2023-02-12T03:07:43;36.75;;;19.33;;
31724;SDS011;18306;40.960;14.836;2023-02-12T03:10:30;34.47;;;19.07;;
31724;SDS011;18306;40.960;14.836;2023-02-12T03:13:09;32.25;;;19.40;;
31724;SDS011;18306;40.960;14.836;2023-02-12T03:15:43;43.65;;;20.65;;
31724;SDS011;18306;40.960;14.836;2023-02-12T03:18:40;32.08;;;18.33;;
31724;SDS011;18306;40.960;14.836;2023-02-12T03:22:17;35.37;;;19.03;;
31724;SDS011;18306;40.960;14.836;2023-02-12T03:27:20;43.75;;;17.50;;
31724;SDS011;18306;40.960;14.836;2023-02-12T03:29:59;37.28;;;15.57;;
31724;SDS011;18306;40.960;14.836;2023-02-12T03:32:32;40.35;;;18.08;;
31724;SDS011;18306;40.960;14.836;2023-02-12T03:35:13;34.30;;;17.23;;
31724;SDS011;18306;40.960;14.836;2023-02-12T03:43:46;26.80;;;16.67;;
31724;SDS011;18306;40.960;14.836;2023-02-12T03:51:38;35.10;;;18.77;;
31724;SDS011;18306;40.960;14.836;2023-02-12T03:54:09;33.35;;;18.88;;
31724;SDS011;18306;40.960;14.836;2023-02-12T03:56:46;30.87;;;17.40;;
31724;SDS011;18306;40.960;14.836;2023-02-12T03:59:18;28.67;;;17.75;;
31724;SDS011;18306;40.960;14.836;2023-02-12T04:01:47;36.38;;;18.40;;
31724;SDS011;18306;40.960;14.836;2023-02-12T04:04:17;30.38;;;16.30;;
31724;SDS011;18306;40.960;14.836;2023-02-12T04:06:45;39.53;;;19.45;;
31724;SDS011;18306;40.960;14.836;2023-02-12T04:09:15;32.42;;;18.52;;
31724;SDS011;18306;40.960;14.836;2023-02-12T04:17:34;24.88;;;16.20;;
31724;SDS011;18306;40.960;14.836;2023-02-12T04:22:49;35.67;;;17.35;;
31724;SDS011;18306;40.960;14.836;2023-02-12T04:28:35;36.85;;;17.33;;
31724;SDS011;18306;40.960;14.836;2023-02-12T04:31:19;32.40;;;16.73;;
31724;SDS011;18306;40.960;14.836;2023-02-12T04:36:40;29.75;;;15.18;;
31724;SDS011;18306;40.960;14.836;2023-02-12T04:39:30;28.77;;;17.15;;
31724;SDS011;18306;40.960;14.836;2023-02-12T04:42:01;30.75;;;16.63;;
31724;SDS011;18306;40.960;14.836;2023-02-12T04:44:30;32.13;;;16.17;;
31724;SDS011;18306;40.960;14.836;2023-02-12T04:47:00;35.50;;;16.83;;
31724;SDS011;18306;40.960;14.836;2023-02-12T04:49:30;31.38;;;16.38;;
31724;SDS011;18306;40.960;14.836;2023-02-12T04:51:58;31.50;;;17.52;;
31724;SDS011;18306;40.960;14.836;2023-02-12T04:54:25;35.88;;;16.33;;
31724;SDS011;18306;40.960;14.836;2023-02-12T04:56:52;33.40;;;16.80;;
31724;SDS011;18306;40.960;14.836;2023-02-12T04:59:20;33.15;;;16.23;;
31724;SDS011;18306;40.960;14.836;2023-02-12T05:01:48;35.42;;;17.85;;
31724;SDS011;18306;40.960;14.836;2023-02-12T05:04:15;25.13;;;16.15;;
31724;SDS011;18306;40.960;14.836;2023-02-12T05:06:44;35.78;;;16.33;;
31724;SDS011;18306;40.960;14.836;2023-02-12T05:09:16;27.73;;;15.73;;
31724;SDS011;18306;40.960;14.836;2023-02-12T05:11:45;40.72;;;19.17;;
31724;SDS011;18306;40.960;14.836;2023-02-12T05:14:12;39.67;;;19.02;;
31724;SDS011;18306;40.960;14.836;2023-02-12T05:16:40;30.85;;;18.20;;
31724;SDS011;18306;40.960;14.836;2023-02-12T05:19:08;34.50;;;17.45;;
31724;SDS011;18306;40.960;14.836;2023-02-12T05:21:36;35.75;;;19.35;;
31724;SDS011;18306;40.960;14.836;2023-02-12T05:24:06;33.60;;;19.23;;
31724;SDS011;18306;40.960;14.836;2023-02-12T05:26:34;30.38;;;17.33;;
31724;SDS011;18306;40.960;14.836;2023-02-12T05:29:02;27.17;;;15.48;;
31724;SDS011;18306;40.960;14.836;2023-02-12T05:31:29;34.88;;;17.50;;
31724;SDS011;18306;40.960;14.836;2023-02-12T05:33:56;27.58;;;15.95;;
31724;SDS011;18306;40.960;14.836;2023-02-12T05:36:24;26.27;;;16.48;;
31724;SDS011;18306;40.960;14.836;2023-02-12T05:38:55;31.25;;;15.48;;
31724;SDS011;18306;40.960;14.836;2023-02-12T05:41:25;47.95;;;17.50;;
31724;SDS011;18306;40.960;14.836;2023-02-12T05:43:53;27.00;;;14.80;;
31724;SDS011;18306;40.960;14.836;2023-02-12T05:46:34;26.40;;;16.38;;
31724;SDS011;18306;40.960;14.836;2023-02-12T05:49:19;27.98;;;15.95;;
31724;SDS011;18306;40.960;14.836;2023-02-12T05:51:54;29.85;;;16.83;;
31724;SDS011;18306;40.960;14.836;2023-02-12T05:54:37;31.15;;;16.73;;
31724;SDS011;18306;40.960;14.836;2023-02-12T05:57:17;32.83;;;16.42;;
31724;SDS011;18306;40.960;14.836;2023-02-12T05:59:45;30.98;;;17.25;;
31724;SDS011;18306;40.960;14.836;2023-02-12T06:02:12;46.58;;;20.05;;
31724;SDS011;18306;40.960;14.836;2023-02-12T06:04:40;37.35;;;17.77;;
31724;SDS011;18306;40.960;14.836;2023-02-12T06:07:07;38.10;;;18.65;;
31724;SDS011;18306;40.960;14.836;2023-02-12T06:09:35;41.63;;;19.60;;
31724;SDS011;18306;40.960;14.836;2023-02-12T06:12:04;33.67;;;17.52;;
31724;SDS011;18306;40.960;14.836;2023-02-12T06:14:31;27.38;;;16.65;;
31724;SDS011;18306;40.960;14.836;2023-02-12T06:16:59;31.40;;;15.70;;
31724;SDS011;18306;40.960;14.836;2023-02-12T06:19:26;28.88;;;15.98;;
31724;SDS011;18306;40.960;14.836;2023-02-12T06:21:54;33.13;;;15.25;;
31724;SDS011;18306;40.960;14.836;2023-02-12T06:24:21;26.88;;;16.83;;
31724;SDS011;18306;40.960;14.836;2023-02-12T06:26:49;46.15;;;16.55;;
31724;SDS011;18306;40.960;14.836;2023-02-12T06:29:17;43.15;;;20.17;;
31724;SDS011;18306;40.960;14.836;2023-02-12T06:31:45;36.42;;;18.15;;
31724;SDS011;18306;40.960;14.836;2023-02-12T06:34:13;30.42;;;16.85;;
31724;SDS011;18306;40.960;14.836;2023-02-12T06:36:45;32.53;;;17.52;;
31724;SDS011;18306;40.960;14.836;2023-02-12T06:39:13;34.55;;;17.02;;
31724;SDS011;18306;40.960;14.836;2023-02-12T06:41:42;39.33;;;17.60;;
31724;SDS011;18306;40.960;14.836;2023-02-12T06:44:10;37.38;;;16.90;;
31724;SDS011;18306;40.960;14.836;2023-02-12T06:46:39;33.95;;;16.67;;
31724;SDS011;18306;40.960;14.836;2023-02-12T06:49:06;28.95;;;16.52;;
31724;SDS011;18306;40.960;14.836;2023-02-12T06:51:34;34.97;;;17.80;;
31724;SDS011;18306;40.960;14.836;2023-02-12T06:54:03;27.90;;;16.67;;
31724;SDS011;18306;40.960;14.836;2023-02-12T06:56:31;34.70;;;17.23;;
31724;SDS011;18306;40.960;14.836;2023-02-12T06:58:58;33.25;;;19.45;;
31724;SDS011;18306;40.960;14.836;2023-02-12T07:01:27;42.28;;;19.38;;
31724;SDS011;18306;40.960;14.836;2023-02-12T07:03:57;35.72;;;18.05;;
31724;SDS011;18306;40.960;14.836;2023-02-12T07:06:26;29.42;;;19.02;;
31724;SDS011;18306;40.960;14.836;2023-02-12T07:08:55;40.08;;;18.88;;
31724;SDS011;18306;40.960;14.836;2023-02-12T07:11:27;30.80;;;16.58;;
31724;SDS011;18306;40.960;14.836;2023-02-12T07:13:56;37.07;;;17.73;;
31724;SDS011;18306;40.960;14.836;2023-02-12T07:16:24;39.53;;;19.13;;
31724;SDS011;18306;40.960;14.836;2023-02-12T07:18:52;33.22;;;20.88;;
31724;SDS011;18306;40.960;14.836;2023-02-12T07:21:20;32.13;;;17.95;;
31724;SDS011;18306;40.960;14.836;2023-02-12T07:23:48;34.72;;;19.10;;
31724;SDS011;18306;40.960;14.836;2023-02-12T07:26:17;40.83;;;18.63;;
31724;SDS011;18306;40.960;14.836;2023-02-12T07:28:45;38.78;;;21.20;;
31724;SDS011;18306;40.960;14.836;2023-02-12T07:31:15;42.03;;;20.25;;
31724;SDS011;18306;40.960;14.836;2023-02-12T07:33:46;42.50;;;19.17;;
31724;SDS011;18306;40.960;14.836;2023-02-12T07:36:15;43.67;;;18.00;;
31724;SDS011;18306;40.960;14.836;2023-02-12T07:38:44;40.30;;;19.98;;
31724;SDS011;18306;40.960;14.836;2023-02-12T07:41:17;48.83;;;21.48;;
31724;SDS011;18306;40.960;14.836;2023-02-12T07:43:52;41.72;;;21.35;;
31724;SDS011;18306;40.960;14.836;2023-02-12T07:46:23;44.88;;;19.90;;
31724;SDS011;18306;40.960;14.836;2023-02-12T07:48:56;37.47;;;20.48;;
31724;SDS011;18306;40.960;14.836;2023-02-12T07:51:25;38.40;;;21.52;;
31724;SDS011;18306;40.960;14.836;2023-02-12T07:53:53;44.05;;;19.27;;
31724;SDS011;18306;40.960;14.836;2023-02-12T07:56:22;45.25;;;21.48;;
31724;SDS011;18306;40.960;14.836;2023-02-12T07:58:51;42.40;;;20.42;;
31724;SDS011;18306;40.960;14.836;2023-02-12T08:01:23;43.50;;;22.58;;
31724;SDS011;18306;40.960;14.836;2023-02-12T08:04:03;38.58;;;21.45;;
31724;SDS011;18306;40.960;14.836;2023-02-12T08:06:37;41.05;;;23.13;;
31724;SDS011;18306;40.960;14.836;2023-02-12T08:09:07;35.92;;;20.83;;
31724;SDS011;18306;40.960;14.836;2023-02-12T08:11:36;40.78;;;21.83;;
31724;SDS011;18306;40.960;14.836;2023-02-12T08:14:05;44.58;;;20.67;;
31724;SDS011;18306;40.960;14.836;2023-02-12T08:16:36;41.30;;;20.90;;
31724;SDS011;18306;40.960;14.836;2023-02-12T08:19:05;39.97;;;20.13;;
31724;SDS011;18306;40.960;14.836;2023-02-12T08:21:33;47.38;;;21.88;;
31724;SDS011;18306;40.960;14.836;2023-02-12T08:24:00;42.00;;;20.83;;
31724;SDS011;18306;40.960;14.836;2023-02-12T08:26:29;37.47;;;21.02;;
31724;SDS011;18306;40.960;14.836;2023-02-12T08:28:59;42.25;;;22.05;;
31724;SDS011;18306;40.960;14.836;2023-02-12T08:31:29;43.25;;;22.25;;
31724;SDS011;18306;40.960;14.836;2023-02-12T08:33:58;45.25;;;20.90;;
31724;SDS011;18306;40.960;14.836;2023-02-12T08:36:28;43.15;;;22.40;;
31724;SDS011;18306;40.960;14.836;2023-02-12T08:38:57;43.30;;;21.27;;
31724;SDS011;18306;40.960;14.836;2023-02-12T08:41:26;38.90;;;21.63;;
31724;SDS011;18306;40.960;14.836;2023-02-12T08:43:56;42.60;;;22.90;;
31724;SDS011;18306;40.960;14.836;2023-02-12T08:46:27;41.55;;;22.73;;
31724;SDS011;18306;40.960;14.836;2023-02-12T08:48:57;49.22;;;22.48;;
31724;SDS011;18306;40.960;14.836;2023-02-12T08:51:29;48.97;;;22.30;;
31724;SDS011;18306;40.960;14.836;2023-02-12T08:53:59;40.25;;;22.63;;
31724;SDS011;18306;40.960;14.836;2023-02-12T08:56:29;48.33;;;22.38;;
31724;SDS011;18306;40.960;14.836;2023-02-12T08:58:57;48.25;;;22.52;;
31724;SDS011;18306;40.960;14.836;2023-02-12T09:01:27;39.67;;;20.77;;
31724;SDS011;18306;40.960;14.836;2023-02-12T09:03:56;42.20;;;22.42;;
31724;SDS011;18306;40.960;14.836;2023-02-12T09:06:24;48.55;;;22.50;;
31724;SDS011;18306;40.960;14.836;2023-02-12T09:08:52;44.08;;;24.33;;
31724;SDS011;18306;40.960;14.836;2023-02-12T09:11:23;45.28;;;23.35;;
31724;SDS011;18306;40.960;14.836;2023-02-12T09:13:58;39.13;;;20.58;;
31724;SDS011;18306;40.960;14.836;2023-02-12T09:16:28;75.35;;;46.70;;
31724;SDS011;18306;40.960;14.836;2023-02-12T09:18:56;64.57;;;25.60;;
31724;SDS011;18306;40.960;14.836;2023-02-12T09:21:23;39.83;;;23.48;;
31724;SDS011;18306;40.960;14.836;2023-02-12T09:23:53;43.90;;;21.15;;
31724;SDS011;18306;40.960;14.836;2023-02-12T09:26:22;46.28;;;21.67;;
31724;SDS011;18306;40.960;14.836;2023-02-12T09:28:54;47.72;;;19.25;;
31724;SDS011;18306;40.960;14.836;2023-02-12T09:31:26;40.15;;;19.13;;
31724;SDS011;18306;40.960;14.836;2023-02-12T09:33:59;40.80;;;19.05;;
31724;SDS011;18306;40.960;14.836;2023-02-12T09:36:28;30.90;;;18.17;;
31724;SDS011;18306;40.960;14.836;2023-02-12T09:38:56;43.83;;;19.27;;
31724;SDS011;18306;40.960;14.836;2023-02-12T09:49:42;31.38;;;16.17;;
31724;SDS011;18306;40.960;14.836;2023-02-12T09:52:26;30.88;;;16.02;;
31724;SDS011;18306;40.960;14.836;2023-02-12T09:54:55;25.92;;;14.27;;
31724;SDS011;18306;40.960;14.836;2023-02-12T09:57:29;27.85;;;14.82;;
31724;SDS011;18306;40.960;14.836;2023-02-12T10:00:08;18.42;;;11.23;;
31724;SDS011;18306;40.960;14.836;2023-02-12T10:02:39;12.15;;;7.95;;
31724;SDS011;18306;40.960;14.836;2023-02-12T10:05:14;16.80;;;8.20;;
31724;SDS011;18306;40.960;14.836;2023-02-12T10:17:06;9.77;;;5.65;;
31724;SDS011;18306;40.960;14.836;2023-02-12T10:23:04;13.40;;;6.55;;
31724;SDS011;18306;40.960;14.836;2023-02-12T10:25:52;14.18;;;6.45;;
31724;SDS011;18306;40.960;14.836;2023-02-12T10:32:29;12.50;;;5.60;;
31724;SDS011;18306;40.960;14.836;2023-02-12T10:34:58;9.95;;;4.95;;
31724;SDS011;18306;40.960;14.836;2023-02-12T10:37:36;8.20;;;4.22;;
31724;SDS011;18306;40.960;14.836;2023-02-12T10:42:59;13.10;;;5.00;;
31724;SDS011;18306;40.960;14.836;2023-02-12T10:45:29;12.55;;;4.50;;
31724;SDS011;18306;40.960;14.836;2023-02-12T10:48:06;10.25;;;4.93;;
31724;SDS011;18306;40.960;14.836;2023-02-12T10:53:22;7.57;;;5.00;;
31724;SDS011;18306;40.960;14.836;2023-02-12T10:58:53;9.95;;;5.32;;
31724;SDS011;18306;40.960;14.836;2023-02-12T11:03:54;4.10;;;2.22;;
31724;SDS011;18306;40.960;14.836;2023-02-12T11:06:24;6.90;;;2.53;;
31724;SDS011;18306;40.960;14.836;2023-02-12T11:08:53;4.57;;;2.70;;
31724;SDS011;18306;40.960;14.836;2023-02-12T11:11:28;2.67;;;2.17;;
31724;SDS011;18306;40.960;14.836;2023-02-12T11:14:17;3.45;;;2.28;;
31724;SDS011;18306;40.960;14.836;2023-02-12T11:17:05;3.40;;;1.70;;
31724;SDS011;18306;40.960;14.836;2023-02-12T11:19:42;3.35;;;2.10;;
31724;SDS011;18306;40.960;14.836;2023-02-12T11:22:09;4.38;;;2.00;;
31724;SDS011;18306;40.960;14.836;2023-02-12T11:24:45;4.00;;;2.05;;
31724;SDS011;18306;40.960;14.836;2023-02-12T11:30:03;5.13;;;2.03;;
31724;SDS011;18306;40.960;14.836;2023-02-12T11:32:48;3.15;;;2.13;;
31724;SDS011;18306;40.960;14.836;2023-02-12T11:35:18;6.88;;;2.45;;
31724;SDS011;18306;40.960;14.836;2023-02-12T11:37:53;4.82;;;2.67;;
31724;SDS011;18306;40.960;14.836;2023-02-12T11:40:27;2.80;;;2.10;;
31724;SDS011;18306;40.960;14.836;2023-02-12T11:43:05;6.25;;;2.40;;
31724;SDS011;18306;40.960;14.836;2023-02-12T11:45:44;2.92;;;2.08;;
31724;SDS011;18306;40.960;14.836;2023-02-12T11:48:21;6.65;;;2.78;;
31724;SDS011;18306;40.960;14.836;2023-02-12T11:50:52;3.15;;;2.22;;
31724;SDS011;18306;40.960;14.836;2023-02-12T11:53:32;5.80;;;2.95;;
31724;SDS011;18306;40.960;14.836;2023-02-12T11:56:12;4.35;;;2.63;;
31724;SDS011;18306;40.960;14.836;2023-02-12T11:58:40;4.28;;;2.28;;
31724;SDS011;18306;40.960;14.836;2023-02-12T12:01:20;8.50;;;3.15;;
31724;SDS011;18306;40.960;14.836;2023-02-12T12:04:31;5.70;;;2.72;;
31724;SDS011;18306;40.960;14.836;2023-02-12T12:07:52;3.65;;;2.28;;
31724;SDS011;18306;40.960;14.836;2023-02-12T12:10:35;6.20;;;2.92;;
31724;SDS011;18306;40.960;14.836;2023-02-12T12:13:15;5.78;;;2.55;;
31724;SDS011;18306;40.960;14.836;2023-02-12T12:15:49;5.68;;;2.88;;
31724;SDS011;18306;40.960;14.836;2023-02-12T12:19:15;3.53;;;2.75;;
31724;SDS011;18306;40.960;14.836;2023-02-12T12:22:03;3.33;;;2.13;;
31724;SDS011;18306;40.960;14.836;2023-02-12T12:24:59;6.97;;;2.65;;
31724;SDS011;18306;40.960;14.836;2023-02-12T12:33:42;3.38;;;2.30;;
31724;SDS011;18306;40.960;14.836;2023-02-12T12:36:17;3.25;;;2.25;;
31724;SDS011;18306;40.960;14.836;2023-02-12T12:55:53;4.75;;;2.85;;
31724;SDS011;18306;40.960;14.836;2023-02-12T13:10:38;3.93;;;2.93;;
31724;SDS011;18306;40.960;14.836;2023-02-12T13:13:17;5.57;;;3.33;;
31724;SDS011;18306;40.960;14.836;2023-02-12T13:23:58;6.93;;;3.05;;
31724;SDS011;18306;40.960;14.836;2023-02-12T13:26:51;4.50;;;3.35;;
31724;SDS011;18306;40.960;14.836;2023-02-12T13:32:02;4.28;;;2.45;;
31724;SDS011;18306;40.960;14.836;2023-02-12T13:34:38;7.93;;;2.78;;
31724;SDS011;18306;40.960;14.836;2023-02-12T13:37:18;8.43;;;3.30;;
31724;SDS011;18306;40.960;14.836;2023-02-12T13:39:55;3.45;;;2.35;;
31724;SDS011;18306;40.960;14.836;2023-02-12T13:42:44;9.35;;;2.40;;
31724;SDS011;18306;40.960;14.836;2023-02-12T13:48:26;5.95;;;2.53;;
31724;SDS011;18306;40.960;14.836;2023-02-12T13:54:22;7.32;;;1.90;;
31724;SDS011;18306;40.960;14.836;2023-02-12T13:57:17;4.90;;;2.50;;
31724;SDS011;18306;40.960;14.836;2023-02-12T13:59:48;6.90;;;3.15;;
31724;SDS011;18306;40.960;14.836;2023-02-12T14:04:59;2.70;;;1.75;;
31724;SDS011;18306;40.960;14.836;2023-02-12T14:10:27;2.50;;;1.83;;
31724;SDS011;18306;40.960;14.836;2023-02-12T14:13:08;4.60;;;1.60;;
31724;SDS011;18306;40.960;14.836;2023-02-12T14:15:40;4.93;;;2.08;;
31724;SDS011;18306;40.960;14.836;2023-02-12T14:23:38;2.47;;;1.98;;
31724;SDS011;18306;40.960;14.836;2023-02-12T14:26:12;2.90;;;1.40;;
31724;SDS011;18306;40.960;14.836;2023-02-12T14:28:58;2.92;;;1.70;;
31724;SDS011;18306;40.960;14.836;2023-02-12T14:31:31;6.25;;;1.55;;
31724;SDS011;18306;40.960;14.836;2023-02-12T14:39:44;5.30;;;1.52;;
31724;SDS011;18306;40.960;14.836;2023-02-12T14:41:55;5.40;;;1.90;;
31724;SDS011;18306;40.960;14.836;2023-02-12T14:44:37;3.55;;;1.75;;
31724;SDS011;18306;40.960;14.836;2023-02-12T14:47:11;3.83;;;1.88;;
31724;SDS011;18306;40.960;14.836;2023-02-12T14:49:51;8.70;;;3.95;;
31724;SDS011;18306;40.960;14.836;2023-02-12T14:52:27;5.57;;;2.08;;
31724;SDS011;18306;40.960;14.836;2023-02-12T14:55:39;3.67;;;1.80;;
31724;SDS011;18306;40.960;14.836;2023-02-12T14:57:49;6.80;;;3.75;;
31724;SDS011;18306;40.960;14.836;2023-02-12T15:00:34;5.18;;;2.25;;
31724;SDS011;18306;40.960;14.836;2023-02-12T15:05:42;6.25;;;2.17;;
31724;SDS011;18306;40.960;14.836;2023-02-12T15:14:07;4.45;;;2.53;;
31724;SDS011;18306;40.960;14.836;2023-02-12T15:16:46;7.50;;;2.58;;
31724;SDS011;18306;40.960;14.836;2023-02-12T15:28:03;5.68;;;3.30;;
31724;SDS011;18306;40.960;14.836;2023-02-12T15:31:00;7.30;;;3.65;;
31724;SDS011;18306;40.960;14.836;2023-02-12T15:33:33;14.02;;;4.18;;
31724;SDS011;18306;40.960;14.836;2023-02-12T15:36:05;3.20;;;2.28;;
31724;SDS011;18306;40.960;14.836;2023-02-12T15:38:37;4.45;;;2.90;;
31724;SDS011;18306;40.960;14.836;2023-02-12T15:41:21;13.68;;;5.03;;
31724;SDS011;18306;40.960;14.836;2023-02-12T15:43:54;8.93;;;3.22;;
31724;SDS011;18306;40.960;14.836;2023-02-12T15:46:24;9.07;;;4.85;;
31724;SDS011;18306;40.960;14.836;2023-02-12T15:48:51;6.40;;;3.38;;
31724;SDS011;18306;40.960;14.836;2023-02-12T15:53:58;5.03;;;3.50;;
31724;SDS011;18306;40.960;14.836;2023-02-12T15:56:27;10.95;;;3.40;;
31724;SDS011;18306;40.960;14.836;2023-02-12T15:58:56;8.82;;;3.42;;
31724;SDS011;18306;40.960;14.836;2023-02-12T16:01:26;5.22;;;3.17;;
31724;SDS011;18306;40.960;14.836;2023-02-12T16:03:55;6.05;;;2.88;;
31724;SDS011;18306;40.960;14.836;2023-02-12T16:06:28;8.50;;;3.38;;
31724;SDS011;18306;40.960;14.836;2023-02-12T16:09:04;6.20;;;3.53;;
31724;SDS011;18306;40.960;14.836;2023-02-12T16:11:42;9.25;;;4.20;;
31724;SDS011;18306;40.960;14.836;2023-02-12T16:14:55;8.02;;;3.67;;
31724;SDS011;18306;40.960;14.836;2023-02-12T16:20:03;9.98;;;3.90;;
31724;SDS011;18306;40.960;14.836;2023-02-12T16:22:41;9.52;;;2.63;;
31724;SDS011;18306;40.960;14.836;2023-02-12T16:25:17;8.52;;;3.30;;
31724;SDS011;18306;40.960;14.836;2023-02-12T16:30:22;6.22;;;3.08;;
31724;SDS011;18306;40.960;14.836;2023-02-12T16:33:00;5.88;;;3.25;;
31724;SDS011;18306;40.960;14.836;2023-02-12T16:35:29;6.43;;;3.40;;
31724;SDS011;18306;40.960;14.836;2023-02-12T16:43:46;7.13;;;3.63;;
31724;SDS011;18306;40.960;14.836;2023-02-12T16:46:16;13.68;;;3.67;;
31724;SDS011;18306;40.960;14.836;2023-02-12T16:48:45;14.15;;;3.75;;
31724;SDS011;18306;40.960;14.836;2023-02-12T16:51:21;5.82;;;3.53;;
31724;SDS011;18306;40.960;14.836;2023-02-12T16:53:51;9.85;;;3.80;;
31724;SDS011;18306;40.960;14.836;2023-02-12T16:56:24;8.13;;;4.35;;
31724;SDS011;18306;40.960;14.836;2023-02-12T16:58:53;7.72;;;4.00;;
31724;SDS011;18306;40.960;14.836;2023-02-12T17:01:24;7.47;;;3.67;;
31724;SDS011;18306;40.960;14.836;2023-02-12T17:03:52;7.93;;;2.88;;
31724;SDS011;18306;40.960;14.836;2023-02-12T17:06:21;10.45;;;3.08;;
31724;SDS011;18306;40.960;14.836;2023-02-12T17:08:50;5.15;;;3.20;;
31724;SDS011;18306;40.960;14.836;2023-02-12T17:11:18;9.65;;;3.47;;
31724;SDS011;18306;40.960;14.836;2023-02-12T17:13:46;7.05;;;3.42;;
31724;SDS011;18306;40.960;14.836;2023-02-12T17:16:16;7.47;;;3.30;;
31724;SDS011;18306;40.960;14.836;2023-02-12T17:18:44;8.15;;;3.75;;
31724;SDS011;18306;40.960;14.836;2023-02-12T17:23:47;12.57;;;4.15;;
31724;SDS011;18306;40.960;14.836;2023-02-12T17:26:21;8.15;;;3.65;;
31724;SDS011;18306;40.960;14.836;2023-02-12T17:28:49;23.80;;;7.43;;
31724;SDS011;18306;40.960;14.836;2023-02-12T17:31:17;9.90;;;5.20;;
31724;SDS011;18306;40.960;14.836;2023-02-12T17:33:46;12.98;;;6.22;;
31724;SDS011;18306;40.960;14.836;2023-02-12T17:36:13;17.08;;;7.50;;
31724;SDS011;18306;40.960;14.836;2023-02-12T17:38:43;25.60;;;10.20;;
31724;SDS011;18306;40.960;14.836;2023-02-12T17:41:11;24.98;;;10.50;;
31724;SDS011;18306;40.960;14.836;2023-02-12T17:43:38;25.65;;;11.00;;
31724;SDS011;18306;40.960;14.836;2023-02-12T17:46:09;27.63;;;11.88;;
31724;SDS011;18306;40.960;14.836;2023-02-12T17:48:38;19.23;;;8.52;;
31724;SDS011;18306;40.960;14.836;2023-02-12T17:51:07;14.18;;;8.55;;
31724;SDS011;18306;40.960;14.836;2023-02-12T17:53:37;16.63;;;7.72;;